Terminal Aerodrome Forecast
Issued by NWS

Home | Current Version | Previous Version | Text Only | Print | Product List | Glossary On
Versions: 1 2 3 4 5 6 7 8 9 10 11 12 13 14 15 16 17
000
FTUS43 KMPX 200500
TAFRNH
TAF
KRNH 200520Z 2006/2106 17009KT P6SM BKN050 BKN100
     FM200800 18006KT 6SM BR SCT070 BKN120
     FM201300 19014G22KT P6SM SCT060 BKN200
     FM210200 18006KT P6SM BKN200=

USA.gov is the U.S. government's official web portal to all federal, state and local government web resources and services.